KQAZ

Agadez

Agadez, Niger
METAR KQAZ 151856Z 12007G16KT 000V170 9999 CLR 19/M07 A3009 RMK AO2A SLP215 WND DATA ESTMD T01901069
Observed Flight Rules
Feb-15 @ 18:56 UTC (16 minutes ago) Visual Flight Rules
Wind Visibility Clouds
120° at 7 knots
 Gusting to 16 knots
10,000+ meters
  • Clear skies
Temperatures Readings
Current 19°C / 66°F
Dewpoint -7°C / 19°F
Humidity 17%
Altimeter 30.09" Hg
Pressure 1021.5 hPa
METAR KQAZ 151856Z 12007G16KT 000V170 9999 CLR 19/M07 A3009 RMK AO2A SLP215 WND DATA ESTMD T01901069
Observed Flight Rules
Feb-15 @ 18:56 UTC
(16 minutes ago)
VFR
Wind Visibility
120° at 7 knots
 Gusting to 16 knots
10,000+ meters
Clouds
  • Clear skies
Temperature Dewpoint
19°C / 66°F -7°C / 19°F
Humidity Altimeter Pressure
17% 30.09" Hg 1021.5 hPa